createdAt,value
2023-05-05T00:02:07.653Z,63.50
2023-05-05T00:05:09.524Z,64.60
2023-05-05T00:08:11.185Z,63.70
2023-05-05T00:11:12.870Z,64.30
2023-05-05T00:14:14.545Z,63.70
2023-05-05T00:17:17.072Z,64.10
2023-05-05T00:20:18.815Z,64.30
2023-05-05T00:23:20.916Z,65.10
2023-05-05T00:26:22.830Z,64.40
2023-05-05T00:29:24.368Z,64.70
2023-05-05T00:32:26.218Z,64.60
2023-05-05T00:35:27.848Z,65.30
2023-05-05T00:38:29.412Z,64.90
2023-05-05T00:41:31.475Z,65.20
2023-05-05T00:44:39.231Z,65.50
2023-05-05T00:47:47.577Z,65.90
2023-05-05T00:50:49.319Z,65.90
2023-05-05T00:53:51.099Z,65.70
2023-05-05T00:56:53.326Z,66.10
2023-05-05T00:59:55.754Z,67.00
2023-05-05T01:02:57.512Z,68.00
2023-05-05T01:06:08.096Z,66.80
2023-05-05T01:09:28.477Z,67.50
2023-05-05T01:12:32.909Z,63.80
2023-05-05T01:15:39.510Z,65.30
2023-05-05T01:19:00.752Z,67.90
2023-05-05T01:22:07.156Z,66.70
2023-05-05T01:25:39.053Z,68.30
2023-05-05T01:29:09.686Z,66.20
2023-05-05T01:32:12.706Z,68.70
2023-05-05T01:35:31.792Z,67.50
2023-05-05T01:38:45.630Z,66.20
2023-05-05T01:41:50.993Z,69.60
2023-05-05T01:44:53.982Z,70.30
2023-05-05T01:47:57.224Z,69.90
2023-05-05T01:51:00.575Z,69.90
2023-05-05T01:54:08.988Z,71.30
2023-05-05T01:57:12.763Z,71.10
2023-05-05T02:00:16.731Z,71.40
2023-05-05T02:03:20.796Z,71.40
2023-05-05T02:06:23.990Z,71.80
2023-05-05T02:09:27.932Z,71.60
2023-05-05T02:12:31.003Z,71.50
2023-05-05T02:15:34.053Z,72.10
2023-05-05T02:18:36.634Z,72.20
2023-05-05T02:21:38.596Z,72.20
2023-05-05T02:24:40.205Z,73.40
2023-05-05T02:27:44.611Z,73.80
2023-05-05T02:30:55.395Z,73.10
2023-05-05T02:33:59.724Z,74.30
2023-05-05T02:37:07.044Z,74.50
2023-05-05T02:40:10.617Z,75.30
2023-05-05T02:43:16.816Z,73.90
2023-05-05T02:46:19.691Z,74.30
2023-05-05T02:49:21.406Z,73.80
2023-05-05T02:52:22.996Z,73.60
2023-05-05T02:55:31.661Z,73.80
2023-05-05T02:58:53.618Z,72.40
2023-05-05T03:02:17.121Z,75.10
2023-05-05T03:05:24.127Z,76.30
2023-05-05T03:08:42.660Z,75.90
2023-05-05T03:11:49.451Z,75.70
2023-05-05T03:14:54.038Z,75.80
2023-05-05T03:17:57.594Z,75.90
2023-05-05T03:21:07.784Z,76.30
2023-05-05T03:24:28.593Z,76.40
2023-05-05T03:27:30.716Z,76.80
2023-05-05T03:30:32.348Z,76.50
2023-05-05T03:33:34.176Z,77.20
2023-05-05T03:36:36.058Z,76.50
2023-05-05T03:39:37.707Z,77.70
2023-05-05T03:42:39.271Z,77.50
2023-05-05T03:45:40.909Z,77.60
2023-05-05T03:48:42.939Z,79.40
2023-05-05T03:51:44.540Z,78.60
2023-05-05T03:54:46.147Z,78.30
2023-05-05T03:57:47.770Z,78.70
2023-05-05T04:00:49.333Z,79.80
2023-05-05T04:03:51.006Z,79.00
2023-05-05T04:06:52.936Z,79.50
2023-05-05T04:09:54.641Z,79.30
2023-05-05T04:12:56.486Z,79.50
2023-05-05T04:15:59.628Z,80.30
2023-05-05T04:19:01.254Z,80.20
2023-05-05T04:22:02.830Z,80.30
2023-05-05T04:25:04.881Z,80.60
2023-05-05T04:28:06.433Z,80.40
2023-05-05T04:31:08.107Z,81.30
2023-05-05T04:34:09.795Z,80.70
2023-05-05T04:37:11.366Z,81.10
2023-05-05T04:40:13.116Z,81.20
2023-05-05T04:43:14.730Z,81.70
2023-05-05T04:46:16.410Z,81.60
2023-05-05T04:49:18.030Z,82.00
2023-05-05T04:52:19.637Z,81.90
2023-05-05T04:55:21.292Z,81.90
2023-05-05T04:58:22.855Z,82.60
2023-05-05T05:01:24.471Z,82.20
2023-05-05T05:04:27.189Z,82.40
2023-05-05T05:07:28.761Z,82.30
2023-05-05T05:10:30.442Z,82.20
2023-05-05T05:13:32.298Z,82.30
2023-05-05T05:16:34.002Z,82.40
2023-05-05T05:19:35.694Z,82.90
2023-05-05T05:22:38.803Z,82.80
2023-05-05T05:25:40.380Z,82.90
2023-05-05T05:28:42.762Z,83.30
2023-05-05T05:31:44.367Z,83.10
2023-05-05T05:34:46.168Z,82.80
2023-05-05T05:37:47.941Z,83.60
2023-05-05T05:40:49.532Z,83.00
2023-05-05T05:43:51.123Z,83.20
2023-05-05T05:46:52.653Z,84.60
2023-05-05T05:49:54.206Z,84.60
2023-05-05T05:52:55.909Z,84.30
2023-05-05T05:55:57.433Z,84.50
2023-05-05T05:58:59.039Z,83.70
2023-05-05T06:02:01.475Z,83.70
2023-05-05T06:05:03.151Z,83.70
2023-05-05T06:08:04.830Z,83.30
2023-05-05T06:11:06.453Z,83.60
2023-05-05T06:14:08.150Z,83.70
2023-05-05T06:17:09.931Z,83.80
2023-05-05T06:20:13.740Z,84.40
2023-05-05T06:23:15.598Z,82.90
2023-05-05T06:26:17.391Z,83.30
2023-05-05T06:29:19.090Z,82.70
2023-05-05T06:32:20.652Z,83.00
2023-05-05T06:35:22.334Z,83.90
2023-05-05T06:38:24.066Z,83.70
2023-05-05T06:41:25.805Z,81.70
2023-05-05T06:44:27.401Z,81.70
2023-05-05T06:47:28.981Z,80.90
2023-05-05T06:50:30.511Z,82.30
2023-05-05T06:53:32.111Z,80.70
2023-05-05T06:56:33.657Z,80.90
2023-05-05T06:59:35.404Z,80.30
2023-05-05T07:02:37.519Z,80.20
2023-05-05T07:05:39.110Z,79.80
2023-05-05T07:08:40.857Z,80.50
2023-05-05T07:11:42.406Z,80.50
2023-05-05T07:14:44.119Z,80.50
2023-05-05T07:17:45.768Z,79.20
2023-05-05T07:20:48.928Z,79.60
2023-05-05T07:23:50.531Z,79.90
2023-05-05T07:26:52.096Z,78.30
2023-05-05T07:29:53.692Z,79.20
2023-05-05T07:32:55.624Z,79.20
2023-05-05T07:35:57.357Z,78.90
2023-05-05T07:38:59.017Z,79.20
2023-05-05T07:42:01.613Z,80.20
2023-05-05T07:45:03.873Z,78.60
2023-05-05T07:48:05.746Z,78.40
2023-05-05T07:51:07.920Z,78.50
2023-05-05T07:54:09.485Z,77.30
2023-05-05T07:57:11.696Z,79.20
2023-05-05T08:00:13.862Z,79.50
2023-05-05T08:03:15.781Z,78.50
2023-05-05T08:06:21.794Z,79.90
2023-05-05T08:09:23.382Z,80.50
2023-05-05T08:12:25.256Z,80.50
2023-05-05T08:15:27.297Z,78.50
2023-05-05T08:18:28.980Z,78.00
2023-05-05T08:21:31.553Z,78.20
2023-05-05T08:24:33.112Z,79.20
2023-05-05T08:27:35.500Z,79.90
2023-05-05T08:30:37.069Z,78.00
2023-05-05T08:33:38.635Z,79.60
2023-05-05T08:36:40.250Z,80.10
2023-05-05T08:39:41.804Z,79.70
2023-05-05T08:42:45.632Z,79.90
2023-05-05T08:45:47.750Z,78.40
2023-05-05T08:48:51.838Z,78.30
2023-05-05T08:51:54.751Z,79.90
2023-05-05T08:55:26.597Z,79.40
2023-05-05T08:58:30.349Z,78.10
2023-05-05T09:01:33.603Z,78.10
2023-05-05T09:04:35.570Z,78.20
2023-05-05T09:07:38.476Z,78.80
2023-05-05T09:10:44.510Z,78.10
2023-05-05T09:13:47.571Z,78.40
2023-05-05T09:16:49.143Z,76.50
2023-05-05T09:20:04.754Z,77.40
2023-05-05T09:23:14.944Z,77.10
2023-05-05T09:26:16.942Z,74.70
2023-05-05T09:29:19.959Z,77.10
2023-05-05T09:32:22.160Z,76.50
2023-05-05T09:35:23.995Z,75.80
2023-05-05T09:38:25.595Z,76.40
2023-05-05T09:41:41.508Z,74.80
2023-05-05T09:44:43.053Z,76.20
2023-05-05T09:47:48.494Z,76.40
2023-05-05T09:50:50.264Z,72.70
2023-05-05T09:53:51.850Z,75.20
2023-05-05T09:56:54.595Z,75.10
2023-05-05T10:00:00.261Z,73.10
2023-05-05T10:03:03.223Z,73.60
2023-05-05T10:06:07.650Z,73.30
2023-05-05T10:09:09.326Z,74.00
2023-05-05T10:12:11.446Z,74.50
2023-05-05T10:15:15.569Z,74.20
2023-05-05T10:18:21.546Z,74.10
2023-05-05T10:21:24.896Z,73.60
2023-05-05T10:24:50.076Z,74.10
2023-05-05T10:27:55.020Z,75.20
2023-05-05T10:31:00.389Z,74.90
2023-05-05T10:34:08.691Z,73.50
2023-05-05T10:37:11.459Z,73.20
2023-05-05T10:40:14.659Z,73.20
2023-05-05T10:43:16.616Z,74.00
2023-05-05T10:46:18.421Z,75.30
2023-05-05T10:49:54.400Z,74.00
2023-05-05T10:53:28.486Z,70.50
2023-05-05T10:56:32.659Z,70.70
2023-05-05T10:59:43.431Z,71.50
2023-05-05T11:02:45.112Z,71.70
2023-05-05T11:06:05.131Z,72.50
2023-05-05T11:09:54.295Z,72.80
2023-05-05T11:12:57.692Z,73.70
2023-05-05T11:16:00.471Z,73.10
2023-05-05T11:19:22.007Z,73.30
2023-05-05T11:22:23.584Z,71.70
2023-05-05T11:25:38.170Z,72.20
2023-05-05T11:29:01.145Z,72.20
2023-05-05T11:32:13.120Z,72.50
2023-05-05T11:35:15.422Z,72.90
2023-05-05T11:38:20.002Z,74.00
2023-05-05T11:41:31.758Z,73.50
2023-05-05T11:44:34.562Z,74.30
2023-05-05T11:47:36.275Z,74.20
2023-05-05T11:50:38.301Z,74.90
2023-05-05T11:53:43.937Z,76.40
2023-05-05T11:56:53.413Z,77.10
2023-05-05T11:59:56.929Z,76.90
2023-05-05T12:02:58.898Z,77.00
2023-05-05T12:06:00.700Z,79.80
2023-05-05T12:09:02.537Z,79.90
2023-05-05T12:12:04.202Z,83.00
2023-05-05T12:15:06.872Z,82.70
2023-05-05T12:18:21.309Z,83.80
2023-05-05T12:21:23.153Z,84.50
2023-05-05T12:24:24.849Z,85.40
2023-05-05T12:27:27.838Z,85.20
2023-05-05T12:30:29.428Z,85.30
2023-05-05T12:33:39.333Z,87.20
2023-05-05T12:36:41.522Z,87.00
2023-05-05T12:39:43.105Z,85.70
2023-05-05T12:42:46.279Z,86.30
2023-05-05T12:45:49.359Z,86.40
2023-05-05T12:49:06.853Z,85.20
2023-05-05T12:52:09.985Z,83.30
2023-05-05T12:55:12.158Z,84.30
2023-05-05T12:58:13.684Z,82.70
2023-05-05T13:01:15.426Z,82.80
2023-05-05T13:04:17.819Z,83.00
2023-05-05T13:07:21.410Z,83.50
2023-05-05T13:10:23.043Z,83.50
2023-05-05T13:13:24.595Z,83.90
2023-05-05T13:16:26.211Z,86.10
2023-05-05T13:19:27.937Z,84.50
2023-05-05T13:22:29.515Z,83.70
2023-05-05T13:25:31.200Z,83.40
2023-05-05T13:28:32.823Z,83.80
2023-05-05T13:31:34.424Z,83.40
2023-05-05T13:34:36.052Z,84.40
2023-05-05T13:37:37.651Z,83.80
2023-05-05T13:40:39.517Z,83.80
2023-05-05T13:43:41.104Z,83.50
2023-05-05T13:46:43.254Z,84.30
2023-05-05T13:49:45.394Z,83.30
2023-05-05T13:52:47.014Z,83.00
2023-05-05T13:55:48.632Z,81.50
2023-05-05T13:58:50.194Z,82.70
2023-05-05T14:01:51.771Z,81.70
2023-05-05T14:04:53.357Z,82.80
2023-05-05T14:07:55.424Z,83.80
2023-05-05T14:10:56.996Z,82.70
2023-05-05T14:13:58.720Z,82.80
2023-05-05T14:17:00.368Z,83.50
2023-05-05T14:20:01.990Z,83.80
2023-05-05T14:23:03.595Z,83.80
2023-05-05T14:26:05.195Z,85.00
2023-05-05T14:29:06.809Z,83.90
2023-05-05T14:32:08.468Z,85.90
2023-05-05T14:35:10.205Z,84.70
2023-05-05T14:38:11.934Z,85.90
2023-05-05T14:41:13.597Z,86.80
2023-05-05T14:44:15.316Z,89.50
2023-05-05T14:47:16.975Z,91.20
2023-05-05T14:50:18.567Z,91.30
2023-05-05T14:53:20.269Z,91.50
2023-05-05T14:56:22.600Z,91.70
2023-05-05T14:59:24.255Z,91.40
2023-05-05T15:02:25.845Z,91.30
2023-05-05T15:05:27.501Z,90.90
2023-05-05T15:08:29.043Z,91.10
2023-05-05T15:11:30.700Z,91.30
2023-05-05T15:14:32.342Z,91.20
2023-05-05T15:17:33.981Z,91.20
2023-05-05T15:20:35.758Z,91.40
2023-05-05T15:23:37.368Z,91.30
2023-05-05T15:26:39.060Z,91.70
2023-05-05T15:29:40.678Z,91.40
2023-05-05T15:32:42.409Z,91.70
2023-05-05T15:35:44.085Z,91.10
2023-05-05T15:38:46.011Z,91.00
2023-05-05T15:41:47.584Z,91.10
2023-05-05T15:44:49.178Z,91.10
2023-05-05T15:47:50.940Z,91.40
2023-05-05T15:50:52.572Z,91.40
2023-05-05T15:53:54.426Z,91.60
2023-05-05T15:56:56.081Z,91.80
2023-05-05T15:59:57.628Z,91.80
2023-05-05T16:02:59.216Z,92.00
2023-05-05T16:06:00.943Z,92.10
2023-05-05T16:09:03.685Z,92.10
2023-05-05T16:12:05.950Z,92.20
2023-05-05T16:15:08.314Z,91.80
2023-05-05T16:18:10.213Z,91.90
2023-05-05T16:21:12.154Z,92.10
2023-05-05T16:24:16.370Z,92.00
2023-05-05T16:27:17.922Z,92.40
2023-05-05T16:30:20.281Z,92.10
2023-05-05T16:33:22.533Z,91.80
2023-05-05T16:36:24.158Z,91.70
2023-05-05T16:39:26.128Z,91.70
2023-05-05T16:42:27.685Z,91.90
2023-05-05T16:45:29.588Z,92.00
2023-05-05T16:48:31.131Z,92.10
2023-05-05T16:51:32.705Z,92.30
2023-05-05T16:54:34.247Z,92.20
2023-05-05T16:57:35.865Z,92.50
2023-05-05T17:00:37.429Z,92.50
2023-05-05T17:03:39.348Z,93.00
2023-05-05T17:06:40.885Z,92.60
2023-05-05T17:09:42.430Z,92.60
2023-05-05T17:12:44.139Z,92.70
2023-05-05T17:15:45.757Z,92.80
2023-05-05T17:18:47.429Z,93.10
2023-05-05T17:21:48.986Z,93.10
2023-05-05T17:24:51.224Z,93.00
2023-05-05T17:27:52.850Z,93.00
2023-05-05T17:30:54.449Z,93.10
2023-05-05T17:33:56.510Z,93.30
2023-05-05T17:36:58.074Z,92.60
2023-05-05T17:39:59.692Z,93.10
2023-05-05T17:43:01.263Z,93.10
2023-05-05T17:46:02.921Z,93.10
2023-05-05T17:49:05.799Z,93.20
2023-05-05T17:52:07.385Z,93.20
2023-05-05T17:55:09.556Z,93.40
2023-05-05T17:58:11.334Z,93.40
2023-05-05T18:01:22.529Z,93.40
2023-05-05T18:04:24.197Z,94.40
2023-05-05T18:07:26.153Z,93.60
2023-05-05T18:10:27.755Z,93.50
2023-05-05T18:13:29.336Z,93.60
2023-05-05T18:16:30.980Z,93.50
2023-05-05T18:19:32.514Z,93.60
2023-05-05T18:22:34.269Z,93.70
2023-05-05T18:25:35.792Z,94.00
2023-05-05T18:28:37.515Z,94.00
2023-05-05T18:31:39.113Z,94.00
2023-05-05T18:34:40.734Z,93.90
2023-05-05T18:37:43.716Z,94.00
2023-05-05T18:40:45.395Z,94.60
2023-05-05T18:43:47.129Z,94.40
2023-05-05T18:46:48.727Z,94.30
2023-05-05T18:49:50.280Z,94.40
2023-05-05T18:52:52.209Z,94.30
2023-05-05T18:55:53.827Z,94.30
2023-05-05T18:58:55.656Z,94.50
2023-05-05T19:01:57.412Z,94.30
2023-05-05T19:04:59.014Z,94.40
2023-05-05T19:08:00.633Z,94.70
2023-05-05T19:11:02.280Z,94.60
2023-05-05T19:14:03.835Z,94.70
2023-05-05T19:17:05.603Z,94.50
2023-05-05T19:20:08.648Z,94.50
2023-05-05T19:23:11.013Z,94.50
2023-05-05T19:26:12.718Z,94.70
2023-05-05T19:29:14.292Z,94.80
2023-05-05T19:32:16.229Z,94.80
2023-05-05T19:35:17.904Z,94.90
2023-05-05T19:38:19.634Z,95.40
2023-05-05T19:41:21.258Z,95.30
2023-05-05T19:44:22.808Z,95.30
2023-05-05T19:47:24.483Z,95.10
2023-05-05T19:50:26.730Z,95.20
2023-05-05T19:53:28.339Z,95.30
2023-05-05T19:56:29.929Z,95.20
2023-05-05T19:59:31.611Z,95.50
2023-05-05T20:02:34.781Z,95.40
2023-05-05T20:05:38.569Z,95.30
2023-05-05T20:08:40.221Z,95.40
2023-05-05T20:11:41.796Z,95.40
2023-05-05T20:14:43.346Z,95.80
2023-05-05T20:17:46.446Z,95.60
2023-05-05T20:20:48.065Z,95.70
2023-05-05T20:23:49.693Z,95.60
2023-05-05T20:26:51.365Z,95.70
2023-05-05T20:29:52.919Z,95.70
2023-05-05T20:32:54.495Z,95.70
2023-05-05T20:35:56.102Z,95.90
2023-05-05T20:39:00.851Z,95.80
2023-05-05T20:42:02.591Z,95.20
2023-05-05T20:45:05.199Z,96.20
2023-05-05T20:48:09.683Z,95.70
2023-05-05T20:51:11.469Z,96.20
2023-05-05T20:54:13.015Z,96.00
2023-05-05T20:57:14.627Z,95.90
2023-05-05T21:00:20.144Z,96.00
2023-05-05T21:03:21.918Z,95.40
2023-05-05T21:06:24.219Z,96.10
2023-05-05T21:09:25.893Z,96.40
2023-05-05T21:12:28.987Z,96.10
2023-05-05T21:15:31.765Z,96.30
2023-05-05T21:18:33.346Z,96.10
2023-05-05T21:21:35.138Z,96.20
2023-05-05T21:24:38.335Z,95.90
2023-05-05T21:27:40.263Z,96.50
2023-05-05T21:30:42.030Z,96.40
2023-05-05T21:33:43.747Z,96.50
2023-05-05T21:36:45.312Z,96.40
2023-05-05T21:39:46.997Z,96.70
2023-05-05T21:42:48.577Z,96.40
2023-05-05T21:46:02.088Z,96.30
2023-05-05T21:49:17.777Z,96.10
2023-05-05T21:52:19.347Z,95.90
2023-05-05T21:55:20.998Z,96.40
2023-05-05T21:58:24.837Z,96.40
2023-05-05T22:01:26.737Z,96.40
2023-05-05T22:04:28.414Z,96.40
2023-05-05T22:07:31.042Z,96.50
2023-05-05T22:10:33.929Z,96.50
2023-05-05T22:13:37.374Z,96.80
2023-05-05T22:16:39.074Z,96.60
2023-05-05T22:19:40.685Z,96.60
2023-05-05T22:22:42.296Z,96.60
2023-05-05T22:25:44.442Z,96.60
2023-05-05T22:28:46.146Z,96.70
2023-05-05T22:31:47.845Z,96.60
2023-05-05T22:34:49.523Z,96.70
2023-05-05T22:37:52.900Z,97.40
2023-05-05T22:40:54.490Z,96.90
2023-05-05T22:43:56.401Z,96.90
2023-05-05T22:46:58.739Z,96.70
2023-05-05T22:50:00.369Z,97.20
2023-05-05T22:53:02.241Z,96.90
2023-05-05T22:56:04.654Z,97.10
2023-05-05T22:59:06.809Z,96.80
2023-05-05T23:02:08.795Z,97.20
2023-05-05T23:05:13.017Z,96.90
2023-05-05T23:08:14.657Z,97.30
2023-05-05T23:11:16.345Z,97.30
2023-05-05T23:14:19.493Z,97.00
2023-05-05T23:17:21.219Z,97.10
2023-05-05T23:20:22.996Z,97.80
2023-05-05T23:23:24.655Z,97.40
2023-05-05T23:26:26.326Z,97.20
2023-05-05T23:29:28.131Z,97.30
2023-05-05T23:32:29.701Z,97.30
2023-05-05T23:35:31.317Z,97.20
2023-05-05T23:38:33.051Z,97.20
2023-05-05T23:41:34.961Z,97.40
2023-05-05T23:44:36.544Z,96.80
2023-05-05T23:47:38.694Z,97.20
2023-05-05T23:50:40.443Z,97.20
2023-05-05T23:53:42.188Z,97.30
2023-05-05T23:56:44.001Z,97.30
2023-05-05T23:59:45.628Z,97.30
